Pagrindinis puslapis
METAR-TAF:

METAR-TAF

Oro uostai :

Wakkanai, Japonija

platuma: 45-24N, ilguma: 141-48E, Aukštis: 8 m

Dabartinis oras

Ataskaita buvo paskelbta 1 valandą ir 3 minutes, ne 02:00 UTC
Vėjas 6 kt iš Pietų
Temperatūra -2°C
Drėgmė 80%
Slėgis 1008 hPa
Matomumas 10 km arba daugiau
Mažai debesys ne aukštis 2000 ft
Išsisklaidę debesys ne aukštis 3000 ft
Su prošvaistėmis ne aukštis 10000 ft

METAR: RJCW 200200Z 18006KT 9999 FEW020 SCT030 BKN100 M02/M05 Q1008

Laikas: 12:03 (03:03 UTC)


TAF: trūkstamas

Orai ataskaitas ir orų prognozės (METAR, TAF).

turimą stotys yra geltonos ir raudonos taškus žemėlapyje.

Perkelti pele per norėdami pamatyti stoties vardą.

Tada spustelėkite, norėdami matyti oro stebėjimo ir prognozės.

Norėdami pakeisti žemėlapį: spustelėkite ant žalios mygtukų su juodo kryžiaus žemyn,; žalią mygtuką su brūkšneliu, jei norite nutolinti; arba žalių rodyklių gretimoms žemėlapius.


METAR-TAF: